createdAt,value
2023-04-15T00:00:58.429Z,5.08
2023-04-15T00:03:25.398Z,5.07
2023-04-15T00:05:52.145Z,5.18
2023-04-15T00:08:18.649Z,5.33
2023-04-15T00:10:46.507Z,5.43
2023-04-15T00:13:13.139Z,5.55
2023-04-15T00:15:39.619Z,5.62
2023-04-15T00:18:07.399Z,5.64
2023-04-15T00:20:34.300Z,5.66
2023-04-15T00:23:02.583Z,5.63
2023-04-15T00:25:29.322Z,5.60
2023-04-15T00:27:55.837Z,5.42
2023-04-15T00:30:22.502Z,5.13
2023-04-15T00:32:49.587Z,4.92
2023-04-15T00:35:16.527Z,4.78
2023-04-15T00:37:44.229Z,4.77
2023-04-15T00:40:13.759Z,4.76
2023-04-15T00:42:40.797Z,4.73
2023-04-15T00:45:08.730Z,4.77
2023-04-15T00:47:37.622Z,4.87
2023-04-15T00:50:04.930Z,4.97
2023-04-15T00:52:31.978Z,5.06
2023-04-15T00:54:59.085Z,5.09
2023-04-15T00:57:26.104Z,5.13
2023-04-15T00:59:53.827Z,5.14
2023-04-15T01:02:20.914Z,5.15
2023-04-15T01:04:47.634Z,5.13
2023-04-15T01:07:14.416Z,5.13
2023-04-15T01:09:41.607Z,5.11
2023-04-15T01:12:11.993Z,5.11
2023-04-15T01:14:38.725Z,5.12
2023-04-15T01:17:05.342Z,5.14
2023-04-15T01:19:31.788Z,5.14
2023-04-15T01:21:58.315Z,5.16
2023-04-15T01:24:27.104Z,5.19
2023-04-15T01:26:54.101Z,5.19
2023-04-15T01:29:21.079Z,5.21
2023-04-15T01:31:55.960Z,5.25
2023-04-15T01:34:22.860Z,5.28
2023-04-15T01:36:49.381Z,5.28
2023-04-15T01:39:15.892Z,5.29
2023-04-15T01:41:46.348Z,5.29
2023-04-15T01:44:12.866Z,5.25
2023-04-15T01:46:39.346Z,5.17
2023-04-15T01:49:06.195Z,4.97
2023-04-15T01:51:32.960Z,4.86
2023-04-15T01:53:59.369Z,4.77
2023-04-15T01:56:26.468Z,4.67
2023-04-15T01:58:53.185Z,4.64
2023-04-15T02:01:20.002Z,4.64
2023-04-15T02:03:47.930Z,4.62
2023-04-15T02:06:14.763Z,4.59
2023-04-15T02:08:41.246Z,4.56
2023-04-15T02:11:09.411Z,4.51
2023-04-15T02:13:36.364Z,4.45
2023-04-15T02:16:03.620Z,4.43
2023-04-15T02:18:30.527Z,4.42
2023-04-15T02:20:58.568Z,4.41
2023-04-15T02:23:25.444Z,4.38
2023-04-15T02:25:53.279Z,4.33
2023-04-15T02:28:20.682Z,4.32
2023-04-15T02:30:52.779Z,4.32
2023-04-15T02:33:20.256Z,4.30
2023-04-15T02:35:47.266Z,4.28
2023-04-15T02:38:14.756Z,4.24
2023-04-15T02:40:41.540Z,4.23
2023-04-15T02:43:07.995Z,4.20
2023-04-15T02:45:34.665Z,4.15
2023-04-15T02:48:06.169Z,4.17
2023-04-15T02:50:33.220Z,4.13
2023-04-15T02:53:01.306Z,4.10
2023-04-15T02:55:28.360Z,4.11
2023-04-15T02:57:54.880Z,4.10
2023-04-15T03:00:21.611Z,4.10
2023-04-15T03:02:49.834Z,4.13
2023-04-15T03:05:16.486Z,4.14
2023-04-15T03:07:43.049Z,4.14
2023-04-15T03:10:10.488Z,4.19
2023-04-15T03:12:36.930Z,4.19
2023-04-15T03:15:03.641Z,4.19
2023-04-15T03:17:30.103Z,4.18
2023-04-15T03:19:56.592Z,4.18
2023-04-15T03:22:23.130Z,4.19
2023-04-15T03:24:49.883Z,4.13
2023-04-15T03:27:16.283Z,4.15
2023-04-15T03:29:42.833Z,4.14
2023-04-15T03:32:09.315Z,4.10
2023-04-15T03:34:36.067Z,4.06
2023-04-15T03:37:02.497Z,4.03
2023-04-15T03:39:28.963Z,4.03
2023-04-15T03:41:56.395Z,4.07
2023-04-15T03:44:22.816Z,4.14
2023-04-15T03:46:49.378Z,4.27
2023-04-15T03:49:16.313Z,4.33
2023-04-15T03:51:42.721Z,4.33
2023-04-15T03:54:09.191Z,4.34
2023-04-15T03:56:35.891Z,4.39
2023-04-15T03:59:02.565Z,4.36
2023-04-15T04:01:29.217Z,4.39
2023-04-15T04:03:56.072Z,4.39
2023-04-15T04:06:22.634Z,4.40
2023-04-15T04:08:49.140Z,4.40
2023-04-15T04:11:17.089Z,4.36
2023-04-15T04:13:43.504Z,4.29
2023-04-15T04:16:09.994Z,4.24
2023-04-15T04:18:36.528Z,4.20
2023-04-15T04:21:03.210Z,4.11
2023-04-15T04:23:29.745Z,4.10
2023-04-15T04:25:56.435Z,4.08
2023-04-15T04:28:22.994Z,4.04
2023-04-15T04:30:49.556Z,4.05
2023-04-15T04:33:16.424Z,4.04
2023-04-15T04:35:43.000Z,4.02
2023-04-15T04:38:09.402Z,4.03
2023-04-15T04:40:36.213Z,4.01
2023-04-15T04:43:03.029Z,4.01
2023-04-15T04:45:29.452Z,4.07
2023-04-15T04:47:56.070Z,4.07
2023-04-15T04:50:22.573Z,4.12
2023-04-15T04:52:49.019Z,4.19
2023-04-15T04:55:15.995Z,4.27
2023-04-15T04:57:42.499Z,4.23
2023-04-15T05:00:09.482Z,4.27
2023-04-15T05:02:36.333Z,4.32
2023-04-15T05:05:02.963Z,4.29
2023-04-15T05:07:29.461Z,4.31
2023-04-15T05:09:56.040Z,4.36
2023-04-15T05:12:22.682Z,4.33
2023-04-15T05:14:49.177Z,4.30
2023-04-15T05:17:15.757Z,4.30
2023-04-15T05:19:42.171Z,4.31
2023-04-15T05:22:08.661Z,4.36
2023-04-15T05:24:35.205Z,4.30
2023-04-15T05:27:02.113Z,4.40
2023-04-15T05:29:28.541Z,4.38
2023-04-15T05:31:55.536Z,4.41
2023-04-15T05:34:22.423Z,4.37
2023-04-15T05:36:48.863Z,4.34
2023-04-15T05:39:15.479Z,4.35
2023-04-15T05:41:42.016Z,4.33
2023-04-15T05:44:08.445Z,4.38
2023-04-15T05:46:34.961Z,4.37
2023-04-15T05:49:01.924Z,4.41
2023-04-15T05:51:28.518Z,4.39
2023-04-15T05:53:54.970Z,4.40
2023-04-15T05:56:22.167Z,4.45
2023-04-15T05:58:48.783Z,4.47
2023-04-15T06:01:15.484Z,4.49
2023-04-15T06:03:42.765Z,4.49
2023-04-15T06:06:09.904Z,4.54
2023-04-15T06:08:36.667Z,4.58
2023-04-15T06:11:03.567Z,4.61
2023-04-15T06:13:30.147Z,4.70
2023-04-15T06:15:56.716Z,4.82
2023-04-15T06:18:23.258Z,4.95
2023-04-15T06:20:49.822Z,5.08
2023-04-15T06:23:16.336Z,5.19
2023-04-15T06:25:42.925Z,5.29
2023-04-15T06:28:09.390Z,5.46
2023-04-15T06:30:36.193Z,5.67
2023-04-15T06:33:05.490Z,5.82
2023-04-15T06:35:32.184Z,5.67
2023-04-15T06:37:58.700Z,5.45
2023-04-15T06:40:25.179Z,5.58
2023-04-15T06:42:51.708Z,5.70
2023-04-15T06:45:18.432Z,5.94
2023-04-15T06:47:44.860Z,6.21
2023-04-15T06:50:11.586Z,6.77
2023-04-15T06:52:38.100Z,7.25
2023-04-15T06:55:05.333Z,7.48
2023-04-15T06:57:33.720Z,7.30
2023-04-15T07:00:01.625Z,7.10
2023-04-15T07:02:28.149Z,7.06
2023-04-15T07:04:55.576Z,7.15
2023-04-15T07:07:22.193Z,7.15
2023-04-15T07:09:48.765Z,7.38
2023-04-15T07:12:15.289Z,7.49
2023-04-15T07:14:41.735Z,7.69
2023-04-15T07:17:09.475Z,7.84
2023-04-15T07:19:36.044Z,7.77
2023-04-15T07:22:02.460Z,7.65
2023-04-15T07:24:28.954Z,7.64
2023-04-15T07:27:00.830Z,7.79
2023-04-15T07:29:27.879Z,7.83
2023-04-15T07:31:54.445Z,8.03
2023-04-15T07:34:21.102Z,8.14
2023-04-15T07:36:50.585Z,8.34
2023-04-15T07:39:17.782Z,8.64
2023-04-15T07:41:45.603Z,8.94
2023-04-15T07:44:12.116Z,9.06
2023-04-15T07:46:38.919Z,8.89
2023-04-15T07:49:05.452Z,8.75
2023-04-15T07:51:32.243Z,8.63
2023-04-15T07:53:59.283Z,8.70
2023-04-15T07:56:26.483Z,8.70
2023-04-15T07:58:53.370Z,8.68
2023-04-15T08:01:19.968Z,8.79
2023-04-15T08:03:47.200Z,8.84
2023-04-15T08:06:14.802Z,8.98
2023-04-15T08:08:41.617Z,8.86
2023-04-15T08:11:09.441Z,9.28
2023-04-15T08:13:36.133Z,9.37
2023-04-15T08:16:22.919Z,9.43
2023-04-15T08:18:51.513Z,9.66
2023-04-15T08:21:19.410Z,9.82
2023-04-15T08:23:47.758Z,9.89
2023-04-15T08:26:14.289Z,10.03
2023-04-15T08:28:42.168Z,9.98
2023-04-15T08:31:09.491Z,9.90
2023-04-15T08:33:36.394Z,9.97
2023-04-15T08:36:03.321Z,10.33
2023-04-15T08:38:29.878Z,10.13
2023-04-15T08:40:59.990Z,10.40
2023-04-15T08:43:34.449Z,10.38
2023-04-15T08:46:02.122Z,10.47
2023-04-15T08:48:38.477Z,10.42
2023-04-15T08:51:05.398Z,10.45
2023-04-15T08:53:32.605Z,10.71
2023-04-15T08:56:02.940Z,10.86
2023-04-15T08:58:30.006Z,11.13
2023-04-15T09:00:57.345Z,11.24
2023-04-15T09:03:24.841Z,11.23
2023-04-15T09:05:53.280Z,11.25
2023-04-15T09:08:19.854Z,11.16
2023-04-15T09:10:46.424Z,11.14
2023-04-15T09:13:13.654Z,11.07
2023-04-15T09:15:40.243Z,11.10
2023-04-15T09:18:07.051Z,11.13
2023-04-15T09:20:43.084Z,11.18
2023-04-15T09:23:14.406Z,11.50
2023-04-15T09:25:44.593Z,11.60
2023-04-15T09:28:11.459Z,11.83
2023-04-15T09:30:38.031Z,12.13
2023-04-15T09:33:08.876Z,11.54
2023-04-15T09:35:38.574Z,11.76
2023-04-15T09:38:07.860Z,11.93
2023-04-15T09:40:39.538Z,12.15
2023-04-15T09:43:07.573Z,12.01
2023-04-15T09:45:35.784Z,11.61
2023-04-15T09:48:23.542Z,11.63
2023-04-15T09:50:51.007Z,11.85
2023-04-15T09:53:22.153Z,12.18
2023-04-15T09:55:51.658Z,12.59
2023-04-15T09:58:29.447Z,13.08
2023-04-15T10:00:58.024Z,11.90
2023-04-15T10:03:26.014Z,11.65
2023-04-15T10:05:55.890Z,11.28
2023-04-15T10:08:25.248Z,11.48
2023-04-15T10:10:52.400Z,11.63
2023-04-15T10:13:20.786Z,11.33
2023-04-15T10:15:53.389Z,11.13
2023-04-15T10:18:21.740Z,10.90
2023-04-15T10:20:48.757Z,10.84
2023-04-15T10:23:15.833Z,11.07
2023-04-15T10:25:42.561Z,11.73
2023-04-15T10:28:09.526Z,12.08
2023-04-15T10:30:37.073Z,12.57
2023-04-15T10:33:05.385Z,12.52
2023-04-15T10:35:33.997Z,12.72
2023-04-15T10:38:00.472Z,12.87
2023-04-15T10:40:31.946Z,13.11
2023-04-15T10:43:02.431Z,12.29
2023-04-15T10:45:36.831Z,12.34
2023-04-15T10:48:06.611Z,12.44
2023-04-15T10:50:33.340Z,12.25
2023-04-15T10:53:03.661Z,12.07
2023-04-15T10:55:34.183Z,12.27
2023-04-15T10:58:02.098Z,12.41
2023-04-15T11:00:30.414Z,12.13
2023-04-15T11:03:09.536Z,12.00
2023-04-15T11:05:42.053Z,12.27
2023-04-15T11:08:13.127Z,12.41
2023-04-15T11:10:39.481Z,12.70
2023-04-15T11:13:17.281Z,13.28
2023-04-15T11:15:45.102Z,13.53
2023-04-15T11:18:13.639Z,12.94
2023-04-15T11:20:41.679Z,13.18
2023-04-15T11:23:14.261Z,12.32
2023-04-15T11:25:43.294Z,12.18
2023-04-15T11:28:11.400Z,11.90
2023-04-15T11:30:39.313Z,12.03
2023-04-15T11:33:08.629Z,12.38
2023-04-15T11:35:36.034Z,12.67
2023-04-15T11:38:08.693Z,12.66
2023-04-15T11:40:35.830Z,12.55
2023-04-15T11:43:12.015Z,12.81
2023-04-15T11:45:48.879Z,12.73
2023-04-15T11:48:15.628Z,12.56
2023-04-15T11:50:42.081Z,12.22
2023-04-15T11:53:10.224Z,12.34
2023-04-15T11:55:47.949Z,12.63
2023-04-15T11:58:16.639Z,12.71
2023-04-15T12:00:47.918Z,12.55
2023-04-15T12:03:14.563Z,12.25
2023-04-15T12:06:07.188Z,12.02
2023-04-15T12:08:54.111Z,11.90
2023-04-15T12:11:26.694Z,12.04
2023-04-15T12:14:28.838Z,11.93
2023-04-15T12:17:02.024Z,12.36
2023-04-15T12:19:36.134Z,12.32
2023-04-15T12:22:05.282Z,12.28
2023-04-15T12:24:33.166Z,12.53
2023-04-15T12:27:07.860Z,12.77
2023-04-15T12:29:36.166Z,13.08
2023-04-15T12:32:08.604Z,12.96
2023-04-15T12:34:37.482Z,12.28
2023-04-15T12:37:06.144Z,12.24
2023-04-15T12:39:36.000Z,12.56
2023-04-15T12:42:04.347Z,12.90
2023-04-15T12:44:30.913Z,12.41
2023-04-15T12:46:58.169Z,12.56
2023-04-15T12:49:25.465Z,12.50
2023-04-15T12:51:54.760Z,12.88
2023-04-15T12:54:22.004Z,12.87
2023-04-15T12:56:49.941Z,12.57
2023-04-15T12:59:18.718Z,12.76
2023-04-15T13:01:46.562Z,12.83
2023-04-15T13:04:13.297Z,12.51
2023-04-15T13:06:40.109Z,12.59
2023-04-15T13:09:06.770Z,12.59
2023-04-15T13:11:33.959Z,12.60
2023-04-15T13:14:02.325Z,12.46
2023-04-15T13:16:29.377Z,12.66
2023-04-15T13:18:56.272Z,12.66
2023-04-15T13:21:22.771Z,12.61
2023-04-15T13:23:50.888Z,12.72
2023-04-15T13:26:18.192Z,12.75
2023-04-15T13:28:44.701Z,12.55
2023-04-15T13:31:11.376Z,12.30
2023-04-15T13:33:37.820Z,12.34
2023-04-15T13:36:04.315Z,12.38
2023-04-15T13:38:30.777Z,12.28
2023-04-15T13:40:57.205Z,12.68
2023-04-15T13:43:23.728Z,12.58
2023-04-15T13:45:50.177Z,12.54
2023-04-15T13:48:17.083Z,12.44
2023-04-15T13:50:45.428Z,12.23
2023-04-15T13:53:12.668Z,12.43
2023-04-15T13:55:42.699Z,12.42
2023-04-15T13:58:09.952Z,12.71
2023-04-15T14:00:36.469Z,12.61
2023-04-15T14:03:03.102Z,12.80
2023-04-15T14:05:29.748Z,12.25
2023-04-15T14:07:56.271Z,11.94
2023-04-15T14:10:22.698Z,11.57
2023-04-15T14:12:49.119Z,12.05
2023-04-15T14:15:15.738Z,12.14
2023-04-15T14:17:42.535Z,11.92
2023-04-15T14:20:09.931Z,11.97
2023-04-15T14:22:36.397Z,11.76
2023-04-15T14:25:02.947Z,11.91
2023-04-15T14:27:29.404Z,11.56
2023-04-15T14:29:57.682Z,11.32
2023-04-15T14:32:25.920Z,11.24
2023-04-15T14:34:52.483Z,11.03
2023-04-15T14:37:19.150Z,11.21
2023-04-15T14:39:45.621Z,11.35
2023-04-15T14:42:12.027Z,11.71
2023-04-15T14:44:38.893Z,11.55
2023-04-15T14:47:06.088Z,11.61
2023-04-15T14:49:32.673Z,11.70
2023-04-15T14:51:59.111Z,11.61
2023-04-15T14:54:25.561Z,11.60
2023-04-15T14:56:51.960Z,11.74
2023-04-15T14:59:18.464Z,11.49
2023-04-15T15:01:45.061Z,11.31
2023-04-15T15:04:12.001Z,11.01
2023-04-15T15:06:39.409Z,10.82
2023-04-15T15:09:06.163Z,11.12
2023-04-15T15:11:32.916Z,11.09
2023-04-15T15:13:59.372Z,11.35
2023-04-15T15:16:26.216Z,11.26
2023-04-15T15:18:52.711Z,11.16
2023-04-15T15:21:19.337Z,10.95
2023-04-15T15:23:46.092Z,10.96
2023-04-15T15:26:12.663Z,10.80
2023-04-15T15:28:39.358Z,10.75
2023-04-15T15:31:06.059Z,10.87
2023-04-15T15:33:32.817Z,10.59
2023-04-15T15:35:59.400Z,10.52
2023-04-15T15:38:26.335Z,10.83
2023-04-15T15:40:52.803Z,10.74
2023-04-15T15:43:19.335Z,10.65
2023-04-15T15:45:45.807Z,10.67
2023-04-15T15:48:12.318Z,10.04
2023-04-15T15:50:38.924Z,10.14
2023-04-15T15:53:05.364Z,10.05
2023-04-15T15:55:31.848Z,9.91
2023-04-15T15:57:58.306Z,9.98
2023-04-15T16:00:24.754Z,10.44
2023-04-15T16:03:05.187Z,10.49
2023-04-15T16:05:33.021Z,10.73
2023-04-15T16:07:59.482Z,10.74
2023-04-15T16:10:26.073Z,10.68
2023-04-15T16:12:52.560Z,10.61
2023-04-15T16:15:19.146Z,10.63
2023-04-15T16:17:45.805Z,10.57
2023-04-15T16:20:12.313Z,10.55
2023-04-15T16:22:39.033Z,10.43
2023-04-15T16:25:06.095Z,10.52
2023-04-15T16:27:33.818Z,10.31
2023-04-15T16:30:01.955Z,10.24
2023-04-15T16:32:28.423Z,10.26
2023-04-15T16:34:55.666Z,10.28
2023-04-15T16:37:22.103Z,10.32
2023-04-15T16:39:48.612Z,10.32
2023-04-15T16:42:15.066Z,10.38
2023-04-15T16:44:41.500Z,10.11
2023-04-15T16:47:11.069Z,9.96
2023-04-15T16:49:38.151Z,9.96
2023-04-15T16:52:04.779Z,9.97
2023-04-15T16:54:33.448Z,10.10
2023-04-15T16:56:59.898Z,10.11
2023-04-15T16:59:27.231Z,9.99
2023-04-15T17:01:55.098Z,9.83
2023-04-15T17:04:21.841Z,9.57
2023-04-15T17:06:48.517Z,9.46
2023-04-15T17:09:14.965Z,9.34
2023-04-15T17:11:43.021Z,9.29
2023-04-15T17:14:09.513Z,9.10
2023-04-15T17:16:36.399Z,9.02
2023-04-15T17:19:03.648Z,9.03
2023-04-15T17:21:31.853Z,8.90
2023-04-15T17:23:58.325Z,8.80
2023-04-15T17:26:24.853Z,8.78
2023-04-15T17:28:51.308Z,8.69
2023-04-15T17:31:17.884Z,8.65
2023-04-15T17:34:01.243Z,8.66
2023-04-15T17:36:31.617Z,8.52
2023-04-15T17:38:58.134Z,8.42
2023-04-15T17:41:24.615Z,8.39
2023-04-15T17:43:51.188Z,8.37
2023-04-15T17:46:19.185Z,8.30
2023-04-15T17:48:46.761Z,8.27
2023-04-15T17:51:13.326Z,8.26
2023-04-15T17:53:39.802Z,8.19
2023-04-15T17:56:06.342Z,8.14
2023-04-15T17:58:32.871Z,8.14
2023-04-15T18:00:59.335Z,8.12
2023-04-15T18:03:26.519Z,8.11
2023-04-15T18:05:53.183Z,8.10
2023-04-15T18:08:19.730Z,8.02
2023-04-15T18:10:46.204Z,7.93
2023-04-15T18:13:12.699Z,7.84
2023-04-15T18:15:39.237Z,7.77
2023-04-15T18:18:05.927Z,7.72
2023-04-15T18:20:33.603Z,7.75
2023-04-15T18:23:00.150Z,7.77
2023-04-15T18:25:26.678Z,7.77
2023-04-15T18:27:54.822Z,7.73
2023-04-15T18:30:21.412Z,7.69
2023-04-15T18:32:47.966Z,7.67
2023-04-15T18:35:14.562Z,7.64
2023-04-15T18:37:41.045Z,7.65
2023-04-15T18:40:08.076Z,7.66
2023-04-15T18:42:34.913Z,7.64
2023-04-15T18:45:01.395Z,7.64
2023-04-15T18:47:28.086Z,7.62
2023-04-15T18:49:54.667Z,7.58
2023-04-15T18:52:21.296Z,7.56
2023-04-15T18:54:47.718Z,7.55
2023-04-15T18:57:14.143Z,7.55
2023-04-15T18:59:49.182Z,7.52
2023-04-15T19:02:15.869Z,7.43
2023-04-15T19:04:42.462Z,7.36
2023-04-15T19:07:09.772Z,7.26
2023-04-15T19:09:36.509Z,7.15
2023-04-15T19:12:03.391Z,7.07
2023-04-15T19:14:29.847Z,6.99
2023-04-15T19:16:56.328Z,6.84
2023-04-15T19:19:22.801Z,6.80
2023-04-15T19:21:50.303Z,6.81
2023-04-15T19:24:18.125Z,6.75
2023-04-15T19:26:48.027Z,6.65
2023-04-15T19:29:14.484Z,6.56
2023-04-15T19:31:40.871Z,6.52
2023-04-15T19:34:07.426Z,6.55
2023-04-15T19:36:33.968Z,6.57
2023-04-15T19:39:01.223Z,6.53
2023-04-15T19:41:27.800Z,6.51
2023-04-15T19:43:54.304Z,6.53
2023-04-15T19:46:20.808Z,6.54
2023-04-15T19:48:47.465Z,6.58
2023-04-15T19:51:13.906Z,6.60
2023-04-15T19:53:41.348Z,6.65
2023-04-15T19:56:07.771Z,6.68
2023-04-15T19:58:34.256Z,6.71
2023-04-15T20:01:01.360Z,6.71
2023-04-15T20:03:27.985Z,6.71
2023-04-15T20:05:54.688Z,6.72
2023-04-15T20:08:21.138Z,6.72
2023-04-15T20:10:47.575Z,6.70
2023-04-15T20:13:14.008Z,6.71
2023-04-15T20:15:40.551Z,6.64
2023-04-15T20:18:07.009Z,6.64
2023-04-15T20:20:34.687Z,6.60
2023-04-15T20:23:01.297Z,6.56
2023-04-15T20:25:27.792Z,6.53
2023-04-15T20:27:54.342Z,6.50
2023-04-15T20:30:20.913Z,6.46
2023-04-15T20:32:47.446Z,6.43
2023-04-15T20:35:13.939Z,6.42
2023-04-15T20:37:43.875Z,6.36
2023-04-15T20:40:11.232Z,6.33
2023-04-15T20:42:38.486Z,6.32
2023-04-15T20:45:06.973Z,6.32
2023-04-15T20:47:33.413Z,6.26
2023-04-15T20:49:59.902Z,6.24
2023-04-15T20:52:26.341Z,6.19
2023-04-15T20:54:52.783Z,6.15
2023-04-15T20:57:20.360Z,6.13
2023-04-15T20:59:46.879Z,6.12
2023-04-15T21:02:13.441Z,6.08
2023-04-15T21:04:39.929Z,6.05
2023-04-15T21:07:06.501Z,6.04
2023-04-15T21:09:33.178Z,6.01
2023-04-15T21:12:01.130Z,5.99
2023-04-15T21:14:28.716Z,5.94
2023-04-15T21:16:56.564Z,5.94
2023-04-15T21:19:22.977Z,5.91
2023-04-15T21:21:49.374Z,5.89
2023-04-15T21:24:15.864Z,5.84
2023-04-15T21:26:42.281Z,5.77
2023-04-15T21:29:11.481Z,5.74
2023-04-15T21:31:38.645Z,5.70
2023-04-15T21:34:05.463Z,5.67
2023-04-15T21:36:32.199Z,5.67
2023-04-15T21:38:58.633Z,5.61
2023-04-15T21:41:25.695Z,5.61
2023-04-15T21:43:53.309Z,5.56
2023-04-15T21:46:24.272Z,5.50
2023-04-15T21:48:54.711Z,5.46
2023-04-15T21:51:21.145Z,5.41
2023-04-15T21:53:47.636Z,5.41
2023-04-15T21:56:14.514Z,5.34
2023-04-15T21:58:40.939Z,5.29
2023-04-15T22:01:07.449Z,5.25
2023-04-15T22:03:35.235Z,5.21
2023-04-15T22:06:03.182Z,5.13
2023-04-15T22:08:32.108Z,5.09
2023-04-15T22:11:00.239Z,5.05
2023-04-15T22:13:26.708Z,5.04
2023-04-15T22:15:53.118Z,5.01
2023-04-15T22:18:19.559Z,4.98
2023-04-15T22:20:46.028Z,4.96
2023-04-15T22:23:13.650Z,4.92
2023-04-15T22:25:40.408Z,4.86
2023-04-15T22:28:08.280Z,4.86
2023-04-15T22:30:41.530Z,4.85
2023-04-15T22:33:09.295Z,4.81
2023-04-15T22:35:37.354Z,4.75
2023-04-15T22:38:04.582Z,4.74
2023-04-15T22:40:31.039Z,4.75
2023-04-15T22:42:57.515Z,4.76
2023-04-15T22:45:23.987Z,4.74
2023-04-15T22:47:50.583Z,4.71
2023-04-15T22:50:17.188Z,4.71
2023-04-15T22:52:46.130Z,4.72
2023-04-15T22:55:12.839Z,4.76
2023-04-15T22:57:39.260Z,4.73
2023-04-15T23:00:07.269Z,4.78
2023-04-15T23:02:34.760Z,4.76
2023-04-15T23:05:04.239Z,4.75
2023-04-15T23:07:39.796Z,4.77
2023-04-15T23:10:07.974Z,4.76
2023-04-15T23:12:34.553Z,4.77
2023-04-15T23:15:00.993Z,4.69
2023-04-15T23:17:27.586Z,4.70
2023-04-15T23:19:54.090Z,4.65
2023-04-15T23:22:20.524Z,4.69
2023-04-15T23:24:46.991Z,4.66
2023-04-15T23:27:13.434Z,4.63
2023-04-15T23:29:39.873Z,4.59
2023-04-15T23:32:06.637Z,4.60
2023-04-15T23:34:33.078Z,4.57
2023-04-15T23:37:00.506Z,4.57
2023-04-15T23:39:27.070Z,4.54
2023-04-15T23:41:53.577Z,4.55
2023-04-15T23:44:20.307Z,4.56
2023-04-15T23:46:46.813Z,4.54
2023-04-15T23:49:13.354Z,4.54
2023-04-15T23:51:39.965Z,4.51
2023-04-15T23:54:06.417Z,4.47
2023-04-15T23:56:32.941Z,4.50
2023-04-15T23:58:59.349Z,4.50
